createdAt,value
2022-09-26T00:00:52.663Z,81.18
2022-09-26T00:01:53.451Z,81.18
2022-09-26T00:02:54.225Z,81.18
2022-09-26T00:03:54.814Z,81.23
2022-09-26T00:04:55.418Z,81.23
2022-09-26T00:05:56.085Z,81.18
2022-09-26T00:06:56.649Z,80.98
2022-09-26T00:07:57.204Z,80.78
2022-09-26T00:08:57.778Z,80.68
2022-09-26T00:09:58.431Z,80.68
2022-09-26T00:10:58.996Z,80.58
2022-09-26T00:11:59.564Z,80.58
2022-09-26T00:13:00.136Z,80.58
2022-09-26T00:14:00.702Z,80.68
2022-09-26T00:15:01.389Z,80.62
2022-09-26T00:16:01.973Z,80.68
2022-09-26T00:17:02.622Z,80.72
2022-09-26T00:18:03.214Z,80.72
2022-09-26T00:19:03.775Z,80.72
2022-09-26T00:20:04.438Z,80.62
2022-09-26T00:21:05.023Z,80.52
2022-09-26T00:22:05.590Z,80.62
2022-09-26T00:23:06.164Z,80.52
2022-09-26T00:24:06.731Z,80.52
2022-09-26T00:25:07.417Z,80.31
2022-09-26T00:26:07.983Z,80.31
2022-09-26T00:27:08.541Z,80.31
2022-09-26T00:28:09.106Z,80.31
2022-09-26T00:29:09.745Z,80.41
2022-09-26T00:30:10.470Z,80.41
2022-09-26T00:31:11.115Z,80.41
2022-09-26T00:32:11.755Z,80.52
2022-09-26T00:33:12.315Z,80.52
2022-09-26T00:34:12.883Z,80.62
2022-09-26T00:35:13.483Z,80.72
2022-09-26T00:36:14.077Z,80.82
2022-09-26T00:37:14.640Z,81.02
2022-09-26T00:38:15.202Z,81.12
2022-09-26T00:39:15.930Z,81.32
2022-09-26T00:40:16.738Z,81.32
2022-09-26T00:41:17.348Z,81.32
2022-09-26T00:42:17.918Z,81.32
2022-09-26T00:43:18.492Z,81.18
2022-09-26T00:44:19.067Z,81.18
2022-09-26T00:45:19.763Z,81.18
2022-09-26T00:46:20.405Z,81.29
2022-09-26T00:47:21.058Z,81.18
2022-09-26T00:48:21.623Z,81.09
2022-09-26T00:49:22.189Z,80.98
2022-09-26T00:50:22.916Z,80.68
2022-09-26T00:51:23.563Z,80.47
2022-09-26T00:52:24.131Z,80.18
2022-09-26T00:53:24.704Z,80.07
2022-09-26T00:54:25.273Z,79.77
2022-09-26T00:55:25.864Z,79.57
2022-09-26T00:56:26.424Z,79.36
2022-09-26T00:57:27.002Z,79.36
2022-09-26T00:58:27.571Z,78.96
2022-09-26T00:59:28.145Z,78.86
2022-09-26T01:00:29.051Z,78.75
2022-09-26T01:01:29.795Z,78.55
2022-09-26T01:02:30.555Z,78.45
2022-09-26T01:03:31.187Z,78.35
2022-09-26T01:04:31.757Z,78.35
2022-09-26T01:05:32.359Z,78.35
2022-09-26T01:06:32.978Z,78.35
2022-09-26T01:07:33.547Z,78.15
2022-09-26T01:08:34.124Z,78.15
2022-09-26T01:09:34.681Z,78.15
2022-09-26T01:10:35.354Z,78.15
2022-09-26T01:11:35.910Z,78.05
2022-09-26T01:12:36.482Z,78.05
2022-09-26T01:13:37.066Z,77.84
2022-09-26T01:14:37.633Z,77.54
2022-09-26T01:15:38.342Z,77.44
2022-09-26T01:16:39.030Z,77.44
2022-09-26T01:17:39.643Z,77.03
2022-09-26T01:18:40.209Z,77.03
2022-09-26T01:19:40.774Z,76.93
2022-09-26T01:20:41.378Z,76.83
2022-09-26T01:21:41.975Z,76.83
2022-09-26T01:22:42.536Z,77.03
2022-09-26T01:23:43.104Z,76.93
2022-09-26T01:24:43.667Z,76.73
2022-09-26T01:25:44.286Z,76.83
2022-09-26T01:26:44.845Z,76.83
2022-09-26T01:27:45.397Z,76.73
2022-09-26T01:28:45.958Z,76.63
2022-09-26T01:29:46.519Z,76.53
2022-09-26T01:30:47.192Z,76.63
2022-09-26T01:31:47.792Z,76.83
2022-09-26T01:32:48.356Z,76.93
2022-09-26T01:33:48.923Z,76.97
2022-09-26T01:34:49.495Z,77.17
2022-09-26T01:35:50.102Z,77.17
2022-09-26T01:36:50.693Z,77.17
2022-09-26T01:37:51.255Z,77.28
2022-09-26T01:38:51.824Z,77.37
2022-09-26T01:39:52.393Z,77.48
2022-09-26T01:40:53.081Z,77.48
2022-09-26T01:41:53.656Z,77.68
2022-09-26T01:42:54.227Z,77.68
2022-09-26T01:43:54.791Z,77.78
2022-09-26T01:44:55.358Z,77.88
2022-09-26T01:45:56.123Z,78.08
2022-09-26T01:46:56.730Z,78.19
2022-09-26T01:47:57.303Z,78.28
2022-09-26T01:48:57.873Z,78.49
2022-09-26T01:49:58.454Z,78.69
2022-09-26T01:50:59.182Z,78.79
2022-09-26T01:51:59.773Z,78.79
2022-09-26T01:53:00.353Z,78.89
2022-09-26T01:54:00.915Z,79.00
2022-09-26T01:55:01.478Z,79.20
2022-09-26T01:56:02.076Z,79.40
2022-09-26T01:57:02.637Z,79.50
2022-09-26T01:58:03.208Z,79.40
2022-09-26T01:59:03.777Z,79.00
2022-09-26T02:00:04.344Z,78.66
2022-09-26T02:01:05.624Z,78.35
2022-09-26T02:02:05.824Z,77.84
2022-09-26T02:03:06.439Z,77.54
2022-09-26T02:04:07.004Z,77.24
2022-09-26T02:05:07.575Z,77.03
2022-09-26T02:06:08.224Z,76.53
2022-09-26T02:07:08.814Z,76.43
2022-09-26T02:08:09.384Z,75.92
2022-09-26T02:09:09.947Z,75.68
2022-09-26T02:10:10.507Z,75.38
2022-09-26T02:11:11.170Z,75.48
2022-09-26T02:12:11.737Z,75.38
2022-09-26T02:13:12.320Z,75.07
2022-09-26T02:14:12.899Z,74.98
2022-09-26T02:15:13.474Z,74.87
2022-09-26T02:16:14.225Z,74.98
2022-09-26T02:17:14.843Z,74.87
2022-09-26T02:18:15.417Z,74.77
2022-09-26T02:19:16.043Z,74.77
2022-09-26T02:20:16.639Z,74.67
2022-09-26T02:21:17.262Z,74.67
2022-09-26T02:22:17.846Z,74.77
2022-09-26T02:23:18.407Z,74.77
2022-09-26T02:24:18.967Z,74.87
2022-09-26T02:25:19.541Z,74.87
2022-09-26T02:26:20.139Z,74.98
2022-09-26T02:27:20.704Z,75.18
2022-09-26T02:28:21.269Z,75.38
2022-09-26T02:29:21.831Z,75.62
2022-09-26T02:30:22.392Z,75.92
2022-09-26T02:31:23.094Z,76.12
2022-09-26T02:32:23.710Z,76.43
2022-09-26T02:33:24.281Z,76.63
2022-09-26T02:34:24.850Z,76.83
2022-09-26T02:35:25.407Z,76.93
2022-09-26T02:36:26.021Z,77.07
2022-09-26T02:37:26.622Z,77.17
2022-09-26T02:38:27.188Z,77.17
2022-09-26T02:39:27.757Z,77.28
2022-09-26T02:40:28.364Z,77.07
2022-09-26T02:41:29.129Z,77.17
2022-09-26T02:42:29.703Z,77.28
2022-09-26T02:43:30.298Z,77.37
2022-09-26T02:44:30.865Z,77.37
2022-09-26T02:45:31.503Z,77.37
2022-09-26T02:46:32.218Z,77.37
2022-09-26T02:47:32.781Z,77.58
2022-09-26T02:48:33.341Z,77.48
2022-09-26T02:49:33.903Z,77.58
2022-09-26T02:50:34.464Z,77.28
2022-09-26T02:51:35.135Z,77.17
2022-09-26T02:52:35.723Z,77.17
2022-09-26T02:53:36.296Z,77.07
2022-09-26T02:54:36.865Z,77.07
2022-09-26T02:55:37.426Z,77.07
2022-09-26T02:56:38.035Z,77.07
2022-09-26T02:57:38.605Z,76.97
2022-09-26T02:58:39.177Z,76.97
2022-09-26T02:59:39.741Z,76.97
2022-09-26T03:00:40.369Z,76.97
2022-09-26T03:01:41.167Z,76.97
2022-09-26T03:02:41.786Z,77.17
2022-09-26T03:03:42.410Z,77.17
2022-09-26T03:04:43.105Z,77.28
2022-09-26T03:05:43.744Z,77.48
2022-09-26T03:06:44.340Z,77.58
2022-09-26T03:07:44.923Z,77.68
2022-09-26T03:08:45.483Z,77.78
2022-09-26T03:09:46.038Z,77.88
2022-09-26T03:10:46.603Z,77.88
2022-09-26T03:11:47.198Z,77.98
2022-09-26T03:12:47.773Z,78.12
2022-09-26T03:13:48.345Z,78.12
2022-09-26T03:14:48.907Z,78.22
2022-09-26T03:15:49.484Z,78.12
2022-09-26T03:16:50.256Z,78.12
2022-09-26T03:17:50.865Z,78.02
2022-09-26T03:18:51.432Z,78.02
2022-09-26T03:19:51.996Z,78.22
2022-09-26T03:20:52.597Z,78.12
2022-09-26T03:22:16.564Z,78.12
2022-09-26T03:22:53.837Z,78.33
2022-09-26T03:23:54.404Z,78.33
2022-09-26T03:24:54.971Z,78.33
2022-09-26T03:25:55.534Z,78.42
2022-09-26T03:26:56.134Z,78.42
2022-09-26T03:27:56.702Z,78.42
2022-09-26T03:28:57.306Z,78.42
2022-09-26T03:29:57.872Z,78.42
2022-09-26T03:30:58.443Z,78.42
2022-09-26T03:31:59.093Z,78.33
2022-09-26T03:32:59.742Z,78.22
2022-09-26T03:34:00.359Z,78.12
2022-09-26T03:35:00.922Z,78.12
2022-09-26T03:36:01.502Z,78.22
2022-09-26T03:37:02.057Z,78.22
2022-09-26T03:38:02.655Z,78.33
2022-09-26T03:39:03.257Z,78.33
2022-09-26T03:40:03.824Z,78.33
2022-09-26T03:41:04.461Z,78.42
2022-09-26T03:42:05.137Z,78.42
2022-09-26T03:43:05.698Z,78.42
2022-09-26T03:44:06.302Z,78.22
2022-09-26T03:45:06.887Z,78.12
2022-09-26T03:46:07.573Z,78.12
2022-09-26T03:47:08.208Z,78.02
2022-09-26T03:48:08.777Z,77.82
2022-09-26T03:49:09.571Z,77.51
2022-09-26T03:50:10.136Z,77.61
2022-09-26T03:51:10.712Z,77.41
2022-09-26T03:52:11.275Z,77.21
2022-09-26T03:53:11.860Z,77.11
2022-09-26T03:54:12.522Z,76.70
2022-09-26T03:55:13.089Z,76.50
2022-09-26T03:56:13.613Z,76.29
2022-09-26T03:57:14.126Z,76.20
2022-09-26T03:58:14.639Z,76.09
2022-09-26T03:59:15.294Z,75.99
2022-09-26T04:00:15.921Z,75.99
2022-09-26T04:01:16.581Z,75.99
2022-09-26T04:02:17.335Z,75.99
2022-09-26T04:03:17.921Z,76.09
2022-09-26T04:04:18.516Z,76.09
2022-09-26T04:05:19.025Z,75.99
2022-09-26T04:06:19.539Z,76.29
2022-09-26T04:07:20.042Z,76.40
2022-09-26T04:08:20.577Z,76.50
2022-09-26T04:09:21.434Z,76.50
2022-09-26T04:10:21.712Z,76.50
2022-09-26T04:11:22.225Z,76.60
2022-09-26T04:12:22.731Z,76.60
2022-09-26T04:13:46.926Z,76.60
2022-09-26T04:14:24.131Z,76.70
2022-09-26T04:15:24.661Z,76.70
2022-09-26T04:16:25.205Z,76.70
2022-09-26T04:17:25.772Z,76.60
2022-09-26T04:18:26.286Z,76.40
2022-09-26T04:19:26.911Z,76.40
2022-09-26T04:20:27.417Z,76.29
2022-09-26T04:21:27.928Z,76.20
2022-09-26T04:22:28.437Z,76.20
2022-09-26T04:23:29.064Z,75.99
2022-09-26T04:24:29.612Z,75.69
2022-09-26T04:25:30.124Z,75.38
2022-09-26T04:26:30.776Z,75.15
2022-09-26T04:27:31.425Z,75.04
2022-09-26T04:28:31.941Z,75.04
2022-09-26T04:29:32.484Z,74.64
2022-09-26T04:30:33.022Z,74.64
2022-09-26T04:31:33.615Z,74.54
2022-09-26T04:32:34.145Z,74.54
2022-09-26T04:33:38.024Z,74.33
2022-09-26T04:34:35.257Z,73.93
2022-09-26T04:35:36.586Z,73.63
2022-09-26T04:36:36.609Z,73.02
2022-09-26T04:37:37.380Z,72.11
2022-09-26T04:38:37.970Z,71.16
2022-09-26T04:39:38.714Z,70.15
2022-09-26T04:40:42.677Z,70.25
2022-09-26T04:41:39.859Z,70.25
2022-09-26T04:42:40.375Z,69.92
2022-09-26T04:43:41.449Z,69.51
2022-09-26T04:44:50.521Z,69.51
2022-09-26T04:45:42.291Z,69.51
2022-09-26T04:46:42.848Z,69.41
2022-09-26T04:47:44.764Z,69.38
2022-09-26T04:48:45.916Z,69.27
2022-09-26T04:49:45.095Z,69.18
2022-09-26T04:50:45.601Z,68.87
2022-09-26T04:51:47.780Z,68.47
2022-09-26T04:52:47.545Z,68.06
2022-09-26T04:53:48.180Z,67.93
2022-09-26T04:54:48.789Z,66.89
2022-09-26T04:55:49.293Z,65.31
2022-09-26T04:56:49.810Z,63.84
2022-09-26T04:57:50.548Z,62.80
2022-09-26T04:58:51.392Z,61.63
2022-09-26T04:59:51.941Z,61.13
2022-09-26T05:00:52.540Z,60.69
2022-09-26T05:01:53.170Z,60.16
2022-09-26T05:02:53.717Z,59.53
2022-09-26T05:03:54.255Z,59.53
2022-09-26T05:04:54.868Z,59.03
2022-09-26T05:06:00.847Z,59.00
2022-09-26T05:06:58.516Z,58.70
2022-09-26T05:07:58.470Z,58.27
2022-09-26T05:08:58.742Z,57.97
2022-09-26T05:09:58.784Z,58.73
2022-09-26T05:10:59.298Z,59.99
2022-09-26T05:11:59.850Z,61.76
2022-09-26T05:13:04.451Z,63.10
2022-09-26T05:14:06.292Z,64.24
2022-09-26T05:15:06.591Z,64.98
2022-09-26T05:16:02.427Z,65.71
2022-09-26T05:17:05.486Z,66.52
2022-09-26T05:18:04.262Z,66.96
2022-09-26T05:19:04.807Z,67.56
2022-09-26T05:20:05.687Z,67.60
2022-09-26T05:21:23.655Z,68.20
2022-09-26T05:22:06.761Z,68.40
2022-09-26T05:23:07.272Z,68.60
2022-09-26T05:24:07.809Z,68.80
2022-09-26T05:25:08.376Z,68.91
2022-09-26T05:26:08.886Z,69.21
2022-09-26T05:27:09.400Z,69.21
2022-09-26T05:28:09.922Z,69.42
2022-09-26T05:29:10.606Z,69.71
2022-09-26T05:30:29.746Z,70.22
2022-09-26T05:31:12.239Z,70.32
2022-09-26T05:32:12.284Z,70.62
2022-09-26T05:33:12.800Z,70.93
2022-09-26T05:34:18.715Z,71.03
2022-09-26T05:35:14.181Z,71.23
2022-09-26T05:36:14.727Z,71.13
2022-09-26T05:37:15.242Z,70.93
2022-09-26T05:38:15.754Z,70.42
2022-09-26T05:39:16.288Z,70.42
2022-09-26T05:40:17.059Z,70.29
2022-09-26T05:41:17.623Z,69.68
2022-09-26T05:42:18.129Z,69.28
2022-09-26T05:43:18.646Z,69.28
2022-09-26T05:44:19.203Z,69.24
2022-09-26T05:45:19.748Z,68.84
2022-09-26T05:46:20.292Z,68.84
2022-09-26T05:47:20.910Z,68.64
2022-09-26T05:48:21.417Z,68.74
2022-09-26T05:49:25.761Z,68.30
2022-09-26T05:50:22.978Z,68.21
2022-09-26T05:51:23.667Z,68.01
2022-09-26T05:52:24.186Z,67.90
2022-09-26T05:53:24.704Z,67.47
2022-09-26T05:54:25.290Z,67.47
2022-09-26T05:55:25.889Z,66.56
2022-09-26T05:56:26.393Z,66.56
2022-09-26T05:57:26.902Z,66.02
2022-09-26T05:58:27.419Z,66.13
2022-09-26T05:59:27.938Z,65.92
2022-09-26T06:00:34.736Z,65.82
2022-09-26T06:01:29.499Z,65.39
2022-09-26T06:02:29.668Z,65.39
2022-09-26T06:09:17.336Z,63.68
2022-09-26T06:09:57.811Z,63.39
2022-09-26T06:10:58.806Z,63.25
2022-09-26T06:12:05.017Z,63.15
2022-09-26T06:12:59.808Z,62.85
2022-09-26T06:14:00.319Z,62.32
2022-09-26T06:15:00.891Z,62.02
2022-09-26T06:16:01.545Z,61.91
2022-09-26T06:17:02.099Z,62.29
2022-09-26T06:18:02.629Z,61.79
2022-09-26T06:19:03.149Z,61.49
2022-09-26T06:20:03.783Z,61.55
2022-09-26T06:21:04.309Z,61.46
2022-09-26T06:22:04.821Z,61.66
2022-09-26T06:23:05.378Z,61.63
2022-09-26T06:24:05.920Z,61.52
2022-09-26T06:25:06.587Z,61.40
2022-09-26T06:26:07.715Z,61.30
2022-09-26T06:27:07.736Z,61.70
2022-09-26T06:28:08.247Z,61.57
2022-09-26T06:29:08.871Z,61.27
2022-09-26T06:30:09.414Z,61.07
2022-09-26T06:31:10.051Z,60.53
2022-09-26T06:32:10.655Z,60.74
2022-09-26T06:33:11.176Z,60.24
2022-09-26T06:34:11.737Z,60.24
2022-09-26T06:35:12.355Z,60.41
2022-09-26T06:36:12.898Z,60.31
2022-09-26T06:37:13.666Z,60.61
2022-09-26T06:38:13.951Z,60.71
2022-09-26T06:39:14.642Z,59.58
2022-09-26T06:40:15.395Z,59.98
2022-09-26T06:41:15.944Z,59.48
2022-09-26T06:42:16.900Z,59.55
2022-09-26T06:43:17.409Z,58.75
2022-09-26T06:44:17.923Z,59.15
2022-09-26T06:45:18.469Z,59.12
2022-09-26T06:46:19.126Z,58.92
2022-09-26T06:47:19.757Z,59.02
2022-09-26T06:48:24.400Z,58.99
2022-09-26T06:49:21.247Z,58.59
2022-09-26T06:50:21.857Z,58.49
2022-09-26T06:51:22.471Z,58.47
2022-09-26T06:52:23.047Z,58.37
2022-09-26T06:53:23.559Z,58.26
2022-09-26T06:54:24.104Z,57.93
2022-09-26T06:55:24.733Z,57.93
2022-09-26T06:56:25.771Z,58.04
2022-09-26T06:57:25.785Z,58.11
2022-09-26T06:58:26.297Z,58.21
2022-09-26T06:59:26.811Z,58.61
2022-09-26T07:00:32.341Z,58.81
2022-09-26T07:01:34.521Z,58.68
2022-09-26T07:02:30.784Z,58.68
2022-09-26T07:03:29.616Z,58.58
2022-09-26T07:04:30.163Z,58.15
2022-09-26T07:05:30.735Z,57.86
2022-09-26T07:06:31.286Z,57.56
2022-09-26T07:07:31.793Z,57.23
2022-09-26T07:09:00.417Z,57.03
2022-09-26T07:09:33.222Z,56.93
2022-09-26T07:10:33.990Z,56.60
2022-09-26T07:11:56.304Z,56.21
2022-09-26T07:12:35.490Z,56.01
2022-09-26T07:13:35.993Z,55.78
2022-09-26T07:14:36.899Z,55.58
2022-09-26T07:15:37.440Z,55.68
2022-09-26T07:16:38.144Z,55.78
2022-09-26T07:17:38.684Z,55.65
2022-09-26T07:18:39.192Z,55.55
2022-09-26T07:19:39.709Z,55.46
2022-09-26T07:20:40.271Z,55.55
2022-09-26T07:21:40.779Z,55.43
2022-09-26T07:22:41.291Z,55.43
2022-09-26T07:23:41.796Z,55.43
2022-09-26T07:24:42.302Z,55.40
2022-09-26T07:25:45.224Z,55.40
2022-09-26T07:26:43.755Z,55.30
2022-09-26T07:27:44.279Z,55.20
2022-09-26T07:28:45.185Z,55.18
2022-09-26T07:29:45.577Z,55.18
2022-09-26T07:30:46.188Z,54.97
2022-09-26T07:31:46.930Z,54.55
2022-09-26T07:32:47.533Z,54.46
2022-09-26T07:33:48.044Z,54.16
2022-09-26T07:34:48.555Z,54.35
2022-09-26T07:35:49.112Z,54.13
2022-09-26T07:36:51.631Z,54.13
2022-09-26T07:37:50.148Z,53.93
2022-09-26T07:38:50.657Z,53.83
2022-09-26T07:39:54.117Z,53.61
2022-09-26T07:40:52.160Z,53.41
2022-09-26T07:41:52.710Z,53.51
2022-09-26T07:43:09.576Z,53.31
2022-09-26T07:44:53.344Z,53.31
2022-09-26T07:45:24.259Z,53.31
2022-09-26T07:45:55.844Z,53.28
2022-09-26T07:46:56.413Z,52.79
2022-09-26T07:47:56.951Z,52.69
2022-09-26T07:48:57.467Z,52.59
2022-09-26T07:49:58.078Z,52.66
2022-09-26T07:50:58.628Z,52.66
2022-09-26T07:51:59.264Z,52.56
2022-09-26T07:53:00.593Z,52.56
2022-09-26T07:54:00.727Z,52.47
2022-09-26T07:55:01.325Z,52.26
2022-09-26T07:56:01.921Z,51.94
2022-09-26T07:57:02.493Z,51.75
2022-09-26T07:58:03.050Z,51.75
2022-09-26T07:59:03.679Z,51.15
2022-09-26T08:00:04.191Z,51.15
2022-09-26T08:01:04.778Z,50.65
2022-09-26T08:02:05.450Z,50.63
2022-09-26T08:03:06.089Z,50.13
2022-09-26T08:04:07.107Z,50.13
2022-09-26T08:05:07.271Z,50.04
2022-09-26T08:06:07.824Z,49.54
2022-09-26T08:07:08.342Z,49.62
2022-09-26T08:08:08.866Z,49.52
2022-09-26T08:09:09.516Z,49.71
2022-09-26T08:10:10.051Z,50.01
2022-09-26T08:11:10.668Z,50.21
2022-09-26T08:12:11.169Z,50.21
2022-09-26T08:13:11.747Z,50.41
2022-09-26T08:14:12.985Z,50.18
2022-09-26T08:15:13.031Z,50.09
2022-09-26T08:16:13.647Z,50.29
2022-09-26T08:17:14.595Z,50.29
2022-09-26T08:18:15.221Z,50.18
2022-09-26T08:19:15.938Z,50.38
2022-09-26T08:20:16.543Z,50.38
2022-09-26T08:21:17.194Z,49.89
2022-09-26T08:22:17.855Z,49.66
2022-09-26T08:23:18.363Z,49.47
2022-09-26T08:24:19.164Z,49.17
2022-09-26T08:25:19.672Z,49.17
2022-09-26T08:26:21.012Z,49.07
2022-09-26T08:27:21.550Z,48.85
2022-09-26T08:28:21.648Z,48.46
2022-09-26T08:29:22.181Z,48.65
2022-09-26T08:30:23.023Z,48.75
2022-09-26T08:31:23.621Z,48.65
2022-09-26T08:32:24.207Z,48.26
2022-09-26T08:33:24.772Z,48.65
2022-09-26T08:34:26.011Z,48.46
2022-09-26T08:35:26.537Z,48.65
2022-09-26T08:36:27.079Z,48.65
2022-09-26T08:37:27.656Z,48.55
2022-09-26T08:38:28.280Z,48.36
2022-09-26T08:39:33.270Z,48.55
2022-09-26T08:40:30.158Z,48.36
2022-09-26T08:41:30.886Z,48.14
2022-09-26T08:42:40.097Z,47.64
2022-09-26T08:43:39.530Z,47.64
2022-09-26T08:44:34.068Z,47.34
2022-09-26T08:45:46.703Z,47.62
2022-09-26T08:46:34.809Z,47.52
2022-09-26T08:47:53.362Z,47.52
2022-09-26T08:48:47.842Z,47.42
2022-09-26T08:49:36.505Z,47.40
2022-09-26T08:50:40.341Z,47.69
2022-09-26T08:51:37.603Z,47.69
2022-09-26T08:52:38.481Z,47.69
2022-09-26T08:53:38.993Z,47.30
2022-09-26T08:54:39.512Z,46.69
2022-09-26T08:55:40.007Z,46.48
2022-09-26T08:56:40.589Z,46.59
2022-09-26T08:57:41.101Z,46.19
2022-09-26T08:58:41.610Z,45.20
2022-09-26T08:59:42.129Z,44.81
2022-09-26T09:00:42.639Z,45.01
2022-09-26T09:01:43.357Z,44.59
2022-09-26T09:02:44.810Z,44.89
2022-09-26T09:03:44.918Z,45.28
2022-09-26T09:04:49.116Z,45.57
2022-09-26T09:05:45.999Z,45.87
2022-09-26T09:06:49.716Z,46.47
2022-09-26T09:07:47.979Z,46.76
2022-09-26T09:08:48.041Z,46.86
2022-09-26T09:09:48.565Z,46.04
2022-09-26T09:10:49.435Z,45.46
2022-09-26T09:11:51.235Z,44.76
2022-09-26T09:12:50.980Z,44.57
2022-09-26T09:13:51.516Z,44.47
2022-09-26T09:15:13.855Z,43.98
2022-09-26T09:15:52.914Z,43.98
2022-09-26T09:16:54.032Z,44.18
2022-09-26T09:17:54.034Z,43.56
2022-09-26T09:18:54.566Z,43.37
2022-09-26T09:19:55.075Z,43.76
2022-09-26T09:20:55.591Z,44.35
2022-09-26T09:21:56.142Z,44.13
2022-09-26T09:22:56.667Z,43.84
2022-09-26T09:23:57.188Z,43.05
2022-09-26T09:24:57.701Z,41.85
2022-09-26T09:27:52.244Z,41.25
2022-09-26T09:28:05.499Z,42.44
2022-09-26T09:29:10.245Z,42.54
2022-09-26T09:30:01.517Z,42.61
2022-09-26T09:31:02.190Z,42.41
2022-09-26T09:32:05.169Z,42.12
2022-09-26T09:33:05.083Z,42.10
2022-09-26T09:34:04.655Z,42.79
2022-09-26T09:35:05.597Z,43.08
2022-09-26T09:36:07.220Z,42.79
2022-09-26T09:37:06.852Z,42.57
2022-09-26T09:38:08.506Z,42.67
2022-09-26T09:39:08.339Z,42.08
2022-09-26T09:40:08.965Z,42.47
2022-09-26T09:41:09.476Z,42.06
2022-09-26T09:42:12.211Z,40.78
2022-09-26T09:43:10.708Z,40.78
2022-09-26T09:44:11.220Z,40.96
2022-09-26T09:45:11.726Z,41.25
2022-09-26T09:46:12.298Z,40.76
2022-09-26T09:47:12.861Z,40.27
2022-09-26T09:48:13.379Z,39.19
2022-09-26T09:49:13.894Z,38.98
2022-09-26T09:50:14.402Z,38.58
2022-09-26T09:51:14.916Z,38.68
2022-09-26T09:52:15.468Z,38.39
2022-09-26T09:53:15.974Z,38.46
2022-09-26T09:54:16.490Z,37.68
2022-09-26T09:55:20.059Z,37.68
2022-09-26T09:56:17.674Z,38.07
2022-09-26T09:57:18.249Z,38.35
2022-09-26T09:58:18.758Z,38.15
2022-09-26T09:59:19.265Z,37.86
2022-09-26T10:00:19.778Z,38.15
2022-09-26T10:01:38.773Z,37.94
2022-09-26T10:04:09.752Z,37.23
2022-09-26T10:05:11.264Z,36.55
2022-09-26T10:06:43.960Z,36.55
2022-09-26T10:07:12.632Z,37.41
2022-09-26T10:08:13.279Z,37.51
2022-09-26T10:09:38.844Z,37.02
2022-09-26T10:10:14.815Z,36.71
2022-09-26T10:11:15.400Z,36.61
2022-09-26T10:12:15.908Z,36.61
2022-09-26T10:13:20.650Z,36.69
2022-09-26T10:14:17.162Z,36.69
2022-09-26T10:15:20.661Z,36.88
2022-09-26T10:16:18.306Z,36.87
2022-09-26T10:17:18.822Z,36.87
2022-09-26T10:18:24.793Z,36.67
2022-09-26T10:19:20.154Z,36.36
2022-09-26T10:20:20.667Z,36.07
2022-09-26T10:21:21.173Z,35.36
2022-09-26T10:22:21.688Z,35.36
2022-09-26T10:23:22.360Z,35.75
2022-09-26T10:24:22.874Z,34.86
2022-09-26T10:25:23.394Z,34.47
2022-09-26T10:26:26.558Z,34.45
2022-09-26T10:27:24.758Z,34.45
2022-09-26T10:28:25.330Z,33.77
2022-09-26T10:29:25.846Z,33.56
2022-09-26T10:30:26.371Z,32.97
2022-09-26T10:31:26.979Z,33.44
2022-09-26T10:32:27.545Z,33.83
2022-09-26T10:33:28.093Z,33.54
2022-09-26T10:34:31.460Z,33.53
2022-09-26T10:35:29.467Z,33.23
2022-09-26T10:36:29.988Z,33.53
2022-09-26T10:37:30.503Z,33.22
2022-09-26T10:38:31.067Z,32.91
2022-09-26T10:39:31.587Z,32.91
2022-09-26T10:40:32.145Z,32.79
2022-09-26T10:41:32.682Z,32.60
2022-09-26T10:42:33.200Z,31.82
2022-09-26T10:43:33.778Z,31.32
2022-09-26T10:44:34.298Z,32.00
2022-09-26T10:45:34.811Z,31.98
2022-09-26T10:46:35.440Z,31.88
2022-09-26T10:47:35.985Z,31.87
2022-09-26T10:48:36.535Z,31.58
2022-09-26T10:49:37.051Z,30.59
2022-09-26T10:50:37.568Z,30.30
2022-09-26T10:51:38.089Z,29.71
2022-09-26T10:52:38.604Z,29.69
2022-09-26T10:53:39.222Z,30.66
2022-09-26T10:54:39.729Z,30.16
2022-09-26T10:55:40.249Z,29.68
2022-09-26T10:56:40.771Z,29.58
2022-09-26T10:57:41.285Z,29.27
2022-09-26T10:58:41.865Z,29.17
2022-09-26T10:59:42.383Z,28.87
2022-09-26T11:00:42.902Z,28.76
2022-09-26T11:01:43.549Z,28.66
2022-09-26T11:02:44.129Z,29.05
2022-09-26T11:03:44.900Z,28.66
2022-09-26T11:04:45.440Z,28.47
2022-09-26T11:05:45.958Z,28.28
2022-09-26T11:06:46.477Z,27.97
2022-09-26T11:07:46.994Z,27.68
2022-09-26T11:08:47.719Z,27.57
2022-09-26T11:09:48.287Z,27.57
2022-09-26T11:10:48.805Z,27.47
2022-09-26T11:11:49.330Z,27.66
2022-09-26T11:12:49.850Z,27.56
2022-09-26T11:13:50.486Z,27.73
2022-09-26T11:14:51.005Z,27.45
2022-09-26T11:15:51.607Z,27.04
2022-09-26T11:16:52.183Z,26.76
2022-09-26T11:17:52.702Z,27.04
2022-09-26T11:18:53.257Z,26.76
2022-09-26T11:19:55.060Z,26.45
2022-09-26T11:20:54.756Z,25.97
2022-09-26T11:21:55.278Z,26.25
2022-09-26T11:22:55.792Z,26.23
2022-09-26T11:23:56.353Z,25.84
2022-09-26T11:24:56.883Z,25.45
2022-09-26T11:25:58.304Z,25.34
2022-09-26T11:26:58.392Z,24.96
2022-09-26T11:27:58.912Z,24.95
2022-09-26T11:28:59.615Z,25.13
2022-09-26T11:30:00.159Z,24.85
2022-09-26T11:31:00.776Z,24.74
2022-09-26T11:32:01.361Z,24.55
2022-09-26T11:33:01.893Z,24.63
2022-09-26T11:34:02.457Z,24.73
2022-09-26T11:35:03.137Z,24.71
2022-09-26T11:36:03.831Z,24.32
2022-09-26T11:37:04.350Z,24.41
2022-09-26T11:38:04.867Z,23.63
2022-09-26T11:39:05.438Z,23.72
2022-09-26T11:40:09.522Z,23.71
2022-09-26T11:41:06.517Z,23.03
2022-09-26T11:42:07.033Z,22.74
2022-09-26T11:43:07.576Z,22.35
2022-09-26T11:44:08.169Z,22.06
2022-09-26T11:45:08.686Z,22.35
2022-09-26T11:46:09.258Z,22.15
2022-09-26T11:47:09.819Z,22.44
2022-09-26T11:48:13.285Z,22.34
2022-09-26T11:49:11.342Z,22.83
2022-09-26T11:50:11.862Z,22.92
2022-09-26T11:51:12.406Z,23.21
2022-09-26T11:52:12.937Z,23.12
2022-09-26T11:53:13.448Z,23.31
2022-09-26T11:54:14.224Z,23.22
2022-09-26T11:55:14.901Z,23.41
2022-09-26T11:56:15.415Z,23.31
2022-09-26T11:57:16.468Z,22.82
2022-09-26T11:58:16.953Z,22.74
2022-09-26T11:59:17.723Z,22.92
2022-09-26T12:00:18.249Z,22.83
2022-09-26T12:01:18.774Z,22.75
2022-09-26T12:02:19.427Z,23.03
2022-09-26T12:03:20.307Z,23.13
2022-09-26T12:04:21.188Z,22.92
2022-09-26T12:05:26.655Z,22.94
2022-09-26T12:06:22.591Z,22.84
2022-09-26T12:07:23.113Z,22.94
2022-09-26T12:08:23.634Z,22.46
2022-09-26T12:09:24.660Z,22.46
2022-09-26T12:10:24.681Z,22.08
2022-09-26T12:11:25.200Z,21.87
2022-09-26T12:12:25.731Z,21.28
2022-09-26T12:13:26.248Z,21.26
2022-09-26T12:14:26.875Z,21.64
2022-09-26T12:15:27.388Z,21.53
2022-09-26T12:16:27.952Z,21.33
2022-09-26T12:17:28.504Z,21.03
2022-09-26T12:18:29.017Z,20.63
2022-09-26T12:19:29.904Z,19.85
2022-09-26T12:20:30.492Z,19.46
2022-09-26T12:21:31.392Z,19.08
2022-09-26T12:22:31.923Z,18.69
2022-09-26T12:23:32.440Z,18.96
2022-09-26T12:24:32.995Z,18.96
2022-09-26T12:25:33.524Z,18.19
2022-09-26T12:26:34.033Z,18.28
2022-09-26T12:27:34.554Z,17.61
2022-09-26T12:28:35.076Z,17.60
2022-09-26T12:29:35.664Z,17.80
2022-09-26T12:30:36.173Z,17.99
2022-09-26T12:31:36.791Z,17.88
2022-09-26T12:32:37.387Z,17.78
2022-09-26T12:33:37.906Z,17.58
2022-09-26T12:34:38.456Z,17.48
2022-09-26T12:35:38.975Z,17.58
2022-09-26T12:36:39.498Z,17.39
2022-09-26T12:37:40.023Z,17.58
2022-09-26T12:38:40.545Z,18.04
2022-09-26T12:39:41.126Z,18.24
2022-09-26T12:40:41.702Z,18.24
2022-09-26T12:41:42.283Z,18.04
2022-09-26T12:42:42.797Z,18.04
2022-09-26T12:43:43.319Z,18.14
2022-09-26T12:44:43.903Z,18.24
2022-09-26T12:45:45.790Z,17.95
2022-09-26T12:46:45.109Z,17.47
2022-09-26T12:47:45.641Z,17.76
2022-09-26T12:48:46.218Z,17.76
2022-09-26T12:49:46.789Z,17.66
2022-09-26T12:50:47.319Z,17.57
2022-09-26T12:51:47.940Z,17.57
2022-09-26T12:52:48.440Z,17.47
2022-09-26T12:53:48.958Z,17.27
2022-09-26T12:54:49.577Z,17.57
2022-09-26T12:55:50.095Z,17.96
2022-09-26T12:56:50.610Z,18.34
2022-09-26T12:57:51.140Z,18.55
2022-09-26T12:58:51.657Z,18.94
2022-09-26T12:59:52.235Z,19.53
2022-09-26T13:00:52.751Z,19.94
2022-09-26T13:01:53.363Z,20.75
2022-09-26T13:02:53.995Z,21.55
2022-09-26T13:03:54.543Z,23.03
2022-09-26T13:04:55.289Z,24.23
2022-09-26T13:05:55.850Z,25.82
2022-09-26T13:07:17.866Z,27.13
2022-09-26T13:07:57.538Z,28.23
2022-09-26T13:08:58.045Z,29.13